• Join FlightAware (Why Join?)
  • Login
  • US Flag 
10:36PM EST


 

Airport Tracker/Info


-or-


 

Live Flight TrackerFlight Track Log ✈ ASH3770 ✈ 07-May-2013 ✈ KPIT - KORD

Flight Track Log - Related Links

Times and Time Zones

All times are in EDT time to prevent confusion due to time zone crossing. See the ASH3770 flight status page for this flight to view local times or setup timezone preferences in your user account.

Time Position Orientation Groundspeed Altitude Reporting Facility
EDT Latitude Longitude Course Direction KTS MPH feet Rate Location/Type
06:39PM 40.5974 -80.7826 291° West  Level FlightAware Approximate
06:39PM 40.5358 -80.3017 254° West 295 339 10,700  Level Cleveland Center
06:40PM 40.6311 -80.9222 285° West  Level FlightAware Approximate
06:40PM 40.5444 -80.4136 276° West 302 348 12,500  Level Cleveland Center
06:41PM 40.6606 -81.0635 282° West  Level FlightAware Approximate
06:41PM 40.5694 -80.5422 284° West 319 367 14,700  Level Cleveland Center
06:42PM 40.6890 -81.2055 286° West  Level FlightAware Approximate
06:42PM 40.5967 -80.6761 285° West 361 415 16,400  Level Cleveland Center
06:43PM 40.7188 -81.3470 286° West  Level FlightAware Approximate
06:43PM 40.6256 -80.8156 285° West 382 440 18,300  Level Cleveland Center
06:44PM 40.7436 -81.4872 303° West  Level FlightAware Approximate
06:44PM 40.6522 -80.9636 283° West 403 464 20,200  Level Cleveland Center
06:45PM 40.6747 -81.0950 283° West 415 478 21,900 1,560 Climbing Cleveland Center
06:46PM 40.7053 -81.2486 285° West 427 491 23,300 1,380 Climbing Cleveland Center
06:47PM 40.7333 -81.4022 284° West 432 497 24,800 1,380 Climbing Cleveland Center
06:48PM 40.7653 -81.5728 284° West 432 497 26,100 1,260 Climbing Cleveland Center
06:49PM 40.7950 -81.7378 283° West 444 511 27,300 1,380 Climbing Cleveland Center
06:50PM 40.8247 -81.9003 284° West 455 524 28,900 1,500 Climbing Cleveland Center
06:51PM 40.8539 -82.0600 284° West 455 524 30,400 1,320 Climbing Cleveland Center
06:52PM 40.8850 -82.2228 284° West 455 524 31,600 780 Climbing Cleveland Center
06:53PM 40.9139 -82.3883 283° West 458 527 32,000 180 Climbing Cleveland Center
06:54PM 40.9442 -82.5622 283° West 478 550 32,000  Level Cleveland Center
06:55PM 40.9706 -82.7228 282° West 490 564 32,000  Level Cleveland Center
06:56PM 41.0025 -82.9025 283° West 498 573 32,000 540 Level Cleveland Center
06:57PM 41.0364 -83.0800 284° West 498 573 33,100 960 Climbing Cleveland Center
06:58PM 41.0694 -83.2714 283° West 486 559 34,000 420 Climbing Cleveland Center
06:59PM 41.0947 -83.4267 282° West 486 559 34,000  Level Cleveland Center
07:00PM 41.1197 -83.5931 281° West 486 559 34,000  Level Cleveland Center
07:01PM 41.1444 -83.7569 281° West 467 537 34,000  Level Cleveland Center
07:03PM 41.1942 -84.0422 283° West 461 531 34,000  Level Chicago Center
07:04PM 41.2211 -84.2125 282° West 471 542 34,000  Level Chicago Center
07:05PM 41.2294 -84.3856 274° West 469 540 34,000  Level Chicago Center
07:06PM 41.2361 -84.5606 273° West 474 545 34,000  Level Chicago Center
07:07PM 41.2433 -84.7383 273° West 481 554 34,000  Level Chicago Center
07:08PM 41.2506 -84.9500 273° West 478 550 34,000  Level Chicago Center
07:09PM 41.2567 -85.1269 273° West 477 549 34,000  Level Chicago Center
07:10PM 41.2617 -85.3036 272° West 477 549 34,000  Level Chicago Center
07:11PM 41.2678 -85.4803 273° West 476 548 34,000 -300 Level Chicago Center
07:12PM 41.2731 -85.6561 272° West 473 544 33,400 -2,760 Descending Chicago Center
07:13PM 41.2764 -85.8222 272° West 456 525 28,300 -4,080 Descending Chicago Center
07:14PM 41.2806 -85.9825 272° West 439 505 25,000 -1,620 Descending Chicago Center
07:15PM 41.3164 -86.1325 288° West 425 489 25,000  Level Chicago Center
07:16PM 41.3619 -86.3222 288° West 445 512 25,000 -420 Level Chicago Center
07:17PM 41.4017 -86.4844 288° West 459 528 24,200 -1,920 Descending Chicago Center
07:18PM 41.4383 -86.6394 288° West 436 502 21,100 -3,120 Descending Chicago Center
07:19PM 41.4781 -86.8008 288° West 406 467 17,800 -2,940 Descending Chicago Center
07:20PM 41.5094 -86.9358 287° West 385 443 15,100 -2,640 Descending Chicago Center
07:21PM 41.5394 -87.0639 287° West 366 421 12,400 -1,500 Descending Chicago Center
07:22PM 41.5686 -87.1869 288° West 353 406 12,000 -180 Descending Chicago Center
07:23PM 41.6000 -87.2833 294° West 357 411 12,100  Climbing Chicago TRACON
07:24PM 41.6667 -87.3667 317° Northwest 362 417 12,000 -120 Descending Chicago TRACON
07:24PM 41.6928 -87.4242 301° West 361 415 12,000  Level Chicago Center
07:26PM 41.7544 -87.5258 309° West 359 413 12,000 -660 Level Chicago Center
07:27PM 41.8333 -87.6500 310° West 290 334 10,400 -1,200 Descending Chicago TRACON
07:28PM 41.8833 -87.7500 304° West 279 321 9,100 -660 Descending Chicago TRACON
07:29PM 41.9000 -87.8500 283° West 283 326 9,100 -60 Level Chicago TRACON
07:30PM 41.8833 -87.9500 257° West 267 307 9,000 -720 Descending Chicago TRACON
07:31PM 41.8833 -88.0333 270° West 207 238 7,700 -1,320 Descending Chicago TRACON
07:32PM 41.8833 -88.0833 270° West 193 222 6,500 -1,320 Descending Chicago TRACON
07:33PM 41.8842 -88.1408 271° West 194 223 5,400 -840 Descending Chicago Center
07:34PM 41.8925 -88.2194 278° West 186 214 5,000 -240 Descending Chicago Center
07:35PM 41.8978 -88.2853 276° West 181 208 5,000  Level Chicago Center
07:36PM 41.9411 -88.3028 343° North 184 212 5,000  Level Chicago Center
07:37PM 41.9669 -88.2589 52° Northeast 202 232 5,000 -240 Level Chicago Center
07:38PM 41.9675 -88.1931 89° East 179 206 4,600 -420 Descending Chicago Center